Time;durP1;ratioP1;P1;durP2;ratioP2;P2;SDS_P1;SDS_P2;PMS_P1;PMS_P2;Temp;Humidity;BMP_temperature;BMP_pressure;BME280_temperature;BME280_humidity;BME280_pressure;Samples;Min_cycle;Max_cycle;Signal;HPM_P1;HPM_P2
2021/07/05 00:01:26;;;;;;;6.78;5.38;;;17.90;99.90;;;17.56;100.00;99708.16;3505360;39;101895;-82
2021/07/05 00:03:53;;;;;;;5.25;4.47;;;17.80;99.90;;;17.57;100.00;99703.59;3517277;39;100077;-82
2021/07/05 00:06:22;;;;;;;5.35;4.00;;;17.80;99.90;;;17.69;100.00;99707.28;3516171;39;100893;-83
2021/07/05 00:08:49;;;;;;;8.10;4.40;;;18.90;99.90;;;17.56;100.00;99702.75;3506281;39;103243;-82
2021/07/05 00:11:16;;;;;;;5.90;4.47;;;17.80;99.90;;;17.53;100.00;99708.63;3515483;39;100667;-82
2021/07/05 00:13:43;;;;;;;4.82;3.95;;;17.80;99.90;;;17.49;100.00;99710.09;3516271;39;100079;-81
2021/07/05 00:16:10;;;;;;;5.70;4.53;;;17.80;99.90;;;17.45;100.00;99706.16;3505696;39;103370;-82
2021/07/05 00:18:37;;;;;;;6.57;5.10;;;17.70;99.90;;;17.51;100.00;99709.88;3506412;39;103401;-83
2021/07/05 00:21:04;;;;;;;5.18;4.28;;;17.70;99.90;;;17.33;100.00;99717.88;3519250;39;100879;-83
2021/07/05 00:23:33;;;;;;;9.07;5.18;;;17.70;99.90;;;17.22;100.00;99711.28;3524619;39;100245;-81
2021/07/05 00:26:00;;;;;;;6.63;4.80;;;17.70;99.90;;;17.24;100.00;99717.31;3516280;39;100620;-82
2021/07/05 00:28:27;;;;;;;5.22;4.72;;;17.60;99.90;;;17.24;100.00;99718.13;3517329;39;102768;-82
2021/07/05 00:30:54;;;;;;;6.50;4.78;;;17.60;99.90;;;17.25;100.00;99716.25;3516410;39;100546;-83
2021/07/05 00:33:21;;;;;;;5.70;4.53;;;17.60;99.90;;;17.18;100.00;99720.88;3516264;39;100328;-82
2021/07/05 00:35:48;;;;;;;6.85;4.38;;;18.50;99.90;;;17.34;100.00;99720.38;3506535;39;102884;-83
2021/07/05 00:38:15;;;;;;;5.55;4.32;;;17.50;99.90;;;17.26;100.00;99717.91;3515836;39;101689;-82
2021/07/05 00:40:44;;;;;;;6.07;4.28;;;17.50;99.90;;;17.35;100.00;99713.09;3506302;39;102167;-82
2021/07/05 00:43:11;;;;;;;7.53;4.47;;;17.50;99.90;;;17.28;100.00;99713.13;3516068;39;100247;-83
2021/07/05 00:45:38;;;;;;;4.97;4.20;;;17.50;99.90;;;17.40;100.00;99716.81;3516212;39;100928;-82
2021/07/05 00:48:06;;;;;;;8.00;5.30;;;18.50;99.90;;;17.35;100.00;99718.50;3515609;39;101261;-82
2021/07/05 00:50:34;;;;;;;5.43;4.57;;;17.50;99.90;;;17.39;100.00;99714.31;3516099;39;100653;-83
2021/07/05 00:53:04;;;;;;;6.13;4.07;;;18.40;99.90;;;17.31;100.00;99715.38;3504863;39;100125;-83
2021/07/05 00:55:33;;;;;;;5.57;4.75;;;17.50;99.90;;;17.32;100.00;99718.91;3513146;39;102431;-81
2021/07/05 00:58:02;;;;;;;6.78;4.63;;;17.50;99.90;;;17.52;100.00;99716.97;3515666;39;101388;-82
2021/07/05 01:00:30;;;;;;;5.47;4.90;;;17.50;99.90;;;17.46;100.00;99712.41;3517187;39;100500;-82
2021/07/05 01:02:57;;;;;;;6.22;4.38;;;17.50;99.90;;;17.59;100.00;99701.50;3527096;39;99212;-83
2021/07/05 01:05:25;;;;;;;4.47;4.05;;;17.60;99.90;;;17.67;100.00;99701.28;3509544;39;101822;-82
2021/07/05 01:07:53;;;;;;;4.68;4.20;;;17.60;99.90;;;17.68;100.00;99702.13;3515918;39;100906;-83
2021/07/05 01:10:23;;;;;;;8.00;4.35;;;17.70;99.90;;;17.56;100.00;99700.06;3506094;39;102606;-81
2021/07/05 01:12:52;;;;;;;5.38;4.25;;;17.70;99.90;;;17.61;100.00;99704.81;3515578;39;100213;-82
2021/07/05 01:15:23;;;;;;;5.90;4.45;;;17.70;99.90;;;17.50;100.00;99702.81;3515690;39;101187;-82
2021/07/05 01:17:52;;;;;;;7.22;4.10;;;17.80;99.90;;;17.67;100.00;99705.88;3515903;39;101345;-82
2021/07/05 01:20:25;;;;;;;6.28;4.68;;;17.80;99.90;;;17.76;100.00;99705.38;3504915;39;102576;-82
2021/07/05 01:22:53;;;;;;;5.00;4.25;;;17.80;99.90;;;17.71;100.00;99701.66;3515491;39;100778;-82
2021/07/05 01:25:24;;;;;;;7.93;4.53;;;18.30;99.90;;;17.82;100.00;99712.63;3516739;39;101034;-82
2021/07/05 01:27:53;;;;;;;4.72;4.07;;;18.60;99.90;;;17.89;100.00;99699.88;3505629;39;103005;-82
2021/07/05 01:30:24;;;;;;;5.00;3.90;;;17.90;99.90;;;17.85;100.00;99700.53;3515678;39;100534;-83
2021/07/05 01:32:54;;;;;;;5.80;4.68;;;17.90;99.90;;;17.92;100.00;99709.44;3515515;39;100053;-83
2021/07/05 01:35:22;;;;;;;7.13;4.43;;;17.90;99.90;;;17.96;100.00;99699.81;3506345;39;103318;-83
2021/07/05 01:37:49;;;;;;;5.88;4.15;;;18.00;99.90;;;17.91;100.00;99699.66;3513432;39;103023;-83
2021/07/05 01:40:18;;;;;;;6.32;4.88;;;18.00;99.90;;;17.98;100.00;99695.00;3505251;39;102478;-82
2021/07/05 01:42:50;;;;;;;5.80;4.53;;;18.10;99.90;;;18.06;100.00;99704.72;3534008;39;100254;-82
2021/07/05 01:45:18;;;;;;;4.03;3.67;;;18.10;99.90;;;18.10;100.00;99706.78;3533582;39;100081;-82
2021/07/05 01:47:46;;;;;;;5.22;4.13;;;19.00;99.90;;;17.93;100.00;99711.91;3515689;39;101851;-82
2021/07/05 01:50:14;;;;;;;4.43;4.00;;;18.30;99.90;;;17.87;100.00;99714.69;3515824;39;100468;-82
2021/07/05 01:52:41;;;;;;;5.68;4.25;;;18.20;99.90;;;17.95;100.00;99709.81;3516095;39;100390;-82
2021/07/05 01:55:09;;;;;;;4.68;4.00;;;18.20;99.90;;;17.93;100.00;99706.50;3515954;39;100812;-82
2021/07/05 01:57:38;;;;;;;6.60;4.65;;;18.20;99.90;;;18.12;100.00;99702.00;3497282;39;101737;-82
2021/07/05 02:00:12;;;;;;;5.18;4.18;;;18.20;99.90;;;18.17;100.00;99701.34;3515058;39;101095;-82
2021/07/05 02:02:39;;;;;;;4.95;4.45;;;18.20;99.90;;;18.22;100.00;99696.06;3505474;39;100146;-83
2021/07/05 02:05:10;;;;;;;6.60;4.45;;;18.20;99.90;;;18.20;100.00;99695.44;3505527;39;103000;-81
2021/07/05 02:07:37;;;;;;;4.72;4.25;;;18.30;99.90;;;18.25;100.00;99701.88;3515580;39;101083;-82
2021/07/05 02:10:07;;;;;;;7.70;4.47;;;18.30;99.90;;;18.18;100.00;99705.66;3514781;39;100598;-83
2021/07/05 02:12:35;;;;;;;4.30;3.90;;;18.30;99.90;;;18.16;100.00;99700.50;3505299;39;100405;-81
2021/07/05 02:15:10;;;;;;;6.07;5.13;;;18.40;99.90;;;18.16;100.00;99703.22;3515646;39;101002;-82
2021/07/05 02:17:38;;;;;;;6.85;4.90;;;18.40;99.90;;;18.15;100.00;99700.72;3514877;39;100766;-82
2021/07/05 02:20:08;;;;;;;5.25;4.55;;;18.40;99.90;;;18.18;100.00;99706.50;3515611;39;100129;-82
2021/07/05 02:22:35;;;;;;;5.82;4.60;;;18.30;99.90;;;18.23;100.00;99714.81;3515751;39;100101;-84
2021/07/05 02:25:02;;;;;;;7.25;5.75;;;18.40;99.90;;;18.29;100.00;99707.69;3516732;39;101916;-82
2021/07/05 02:27:30;;;;;;;8.38;5.53;;;18.50;99.90;;;18.34;100.00;99710.53;3516907;39;101382;-83
2021/07/05 02:29:57;;;;;;;5.30;4.13;;;18.30;99.90;;;18.39;100.00;99712.59;3537643;39;101017;-83
2021/07/05 02:32:25;;;;;;;7.25;4.57;;;18.80;99.90;;;18.48;100.00;99722.91;3523399;39;99826;-83
2021/07/05 02:34:52;;;;;;;5.38;4.28;;;18.40;99.90;;;18.54;100.00;99719.31;3516874;39;101054;-83
2021/07/05 02:37:19;;;;;;;5.03;4.53;;;18.40;99.90;;;18.64;100.00;99719.66;3516788;39;101024;-82
2021/07/05 02:39:46;;;;;;;5.68;4.38;;;18.40;99.90;;;18.75;100.00;99717.25;3517197;39;100389;-81
2021/07/05 02:42:13;;;;;;;5.60;4.30;;;18.40;99.90;;;18.77;100.00;99721.41;3517058;39;100230;-83
2021/07/05 02:44:40;;;;;;;5.97;4.57;;;19.10;99.90;;;18.77;100.00;99723.28;3500590;39;103621;-81
2021/07/05 02:47:07;;;;;;;4.97;4.32;;;18.50;99.90;;;18.81;100.00;99727.19;3516887;39;101475;-82
2021/07/05 02:49:36;;;;;;;7.25;4.57;;;18.90;99.90;;;18.81;100.00;99733.44;3517346;39;100474;-82
2021/07/05 02:52:04;;;;;;;6.28;5.05;;;18.50;99.90;;;18.81;100.00;99736.16;3507442;39;100171;-82
2021/07/05 02:54:30;;;;;;;6.68;4.40;;;18.50;99.90;;;18.86;100.00;99741.72;3516836;39;101135;-82
2021/07/05 02:56:57;;;;;;;4.13;3.58;;;19.70;99.90;;;18.90;100.00;99758.38;3507303;39;103065;-82
2021/07/05 02:59:24;;;;;;;5.03;4.05;;;18.60;99.90;;;18.91;100.00;99752.75;3516571;39;100389;-82
2021/07/05 03:01:52;;;;;;;5.70;4.15;;;18.60;99.90;;;18.94;100.00;99757.69;3518314;39;100532;-83
2021/07/05 03:04:19;;;;;;;6.25;4.55;;;18.60;99.90;;;18.95;100.00;99764.78;3506733;39;101529;-82
2021/07/05 03:06:47;;;;;;;5.47;3.85;;;18.60;99.90;;;18.98;100.00;99771.63;3517239;39;101143;-82
2021/07/05 03:09:14;;;;;;;6.00;4.35;;;18.60;99.90;;;18.99;100.00;99774.13;3517314;39;100200;-81
2021/07/05 03:11:42;;;;;;;6.18;4.05;;;18.70;99.90;;;19.04;100.00;99780.75;3517599;39;99888;-83
2021/07/05 03:14:08;;;;;;;4.97;3.97;;;18.70;99.90;;;19.07;100.00;99772.16;3517252;39;100758;-83
2021/07/05 03:16:36;;;;;;;7.28;4.28;;;18.90;99.90;;;19.07;100.00;99766.72;3507376;39;103020;-82
2021/07/05 03:19:03;;;;;;;4.75;3.42;;;18.70;99.90;;;19.09;100.00;99775.47;3526287;39;100351;-84
2021/07/05 03:21:30;;;;;;;4.63;3.47;;;18.70;99.90;;;19.11;100.00;99765.22;3531068;39;99951;-82
2021/07/05 03:23:58;;;;;;;3.55;3.22;;;18.80;99.90;;;19.14;100.00;99764.78;3517301;39;101883;-82
2021/07/05 03:26:25;;;;;;;4.82;3.15;;;18.70;99.90;;;19.12;100.00;99765.00;3516994;39;101228;-87
2021/07/05 03:28:52;;;;;;;6.07;3.42;;;18.80;99.90;;;19.15;100.00;99771.88;3507253;39;102180;-81
2021/07/05 03:31:19;;;;;;;4.45;3.58;;;18.80;99.90;;;19.13;100.00;99763.13;3517649;39;100027;-82
2021/07/05 03:33:48;;;;;;;5.22;3.42;;;19.80;99.90;;;19.11;100.00;99762.53;3517191;39;100699;-81
2021/07/05 03:36:15;;;;;;;3.92;3.38;;;18.80;99.90;;;19.14;100.00;99767.50;3517558;39;100774;-81
2021/07/05 03:38:42;;;;;;;6.93;3.60;;;18.80;99.90;;;19.14;100.00;99773.75;3507600;39;102428;-83
2021/07/05 03:41:13;;;;;;;3.88;3.47;;;17.90;99.90;;;19.16;100.00;99781.66;3517741;39;100157;-82
2021/07/05 03:43:41;;;;;;;6.55;3.42;;;18.80;99.90;;;19.13;100.00;99782.13;3507493;39;102841;-82
2021/07/05 03:46:08;;;;;;;4.07;2.90;;;18.80;99.90;;;19.12;100.00;99783.16;3506838;39;101720;-82
2021/07/05 03:48:36;;;;;;;5.22;3.25;;;18.80;99.90;;;19.15;100.00;99783.56;3517430;39;100500;-83
2021/07/05 03:51:03;;;;;;;3.92;3.00;;;18.80;99.90;;;19.14;100.00;99781.06;3507498;39;100168;-82
2021/07/05 03:53:30;;;;;;;4.93;3.33;;;18.90;99.90;;;19.13;100.00;99785.66;3508539;39;100828;-83
2021/07/05 03:55:57;;;;;;;4.75;3.45;;;18.90;99.90;;;19.24;100.00;99787.59;3507186;39;103695;-83
2021/07/05 03:58:26;;;;;;;3.17;2.83;;;18.90;99.90;;;19.22;100.00;99792.44;3520112;39;101061;-84
2021/07/05 04:00:53;;;;;;;4.05;2.90;;;20.00;99.90;;;19.26;100.00;99792.81;3537483;39;99189;-84
2021/07/05 04:03:20;;;;;;;6.13;3.78;;;18.90;99.90;;;19.27;100.00;99791.75;3521781;39;100283;-83
2021/07/05 04:05:47;;;;;;;5.38;3.28;;;19.70;99.90;;;19.39;100.00;99792.66;3516469;39;101918;-81
2021/07/05 04:08:14;;;;;;;3.60;3.00;;;18.90;99.90;;;19.35;100.00;99797.69;3517067;39;100565;-82
2021/07/05 04:10:42;;;;;;;3.97;3.03;;;19.00;99.90;;;19.30;100.00;99794.81;3518352;39;99950;-83
2021/07/05 04:13:10;;;;;;;5.43;3.10;;;19.00;99.90;;;19.35;100.00;99797.69;3518239;39;101225;-83
2021/07/05 04:15:39;;;;;;;4.45;3.15;;;19.00;99.90;;;19.36;100.00;99802.06;3518375;39;100932;-83
2021/07/05 04:18:09;;;;;;;4.72;3.20;;;19.00;99.90;;;19.36;100.00;99795.81;3518380;39;100811;-83
2021/07/05 04:20:37;;;;;;;4.47;3.08;;;19.10;99.90;;;19.36;100.00;99790.38;3519936;39;100305;-82
2021/07/05 04:23:04;;;;;;;2.90;2.63;;;20.20;99.90;;;19.35;100.00;99786.03;3510438;39;103074;-82
2021/07/05 04:25:31;;;;;;;3.10;2.47;;;19.10;99.90;;;19.37;100.00;99787.47;3520492;39;101257;-82
2021/07/05 04:27:58;;;;;;;6.57;2.83;;;19.20;99.90;;;19.36;100.00;99791.22;3510873;39;101290;-84
2021/07/05 04:30:26;;;;;;;3.08;2.58;;;19.20;99.90;;;19.41;100.00;99781.59;3517519;39;99966;-83
2021/07/05 04:32:55;;;;;;;3.60;2.28;;;19.20;99.90;;;19.40;100.00;99783.47;3519679;39;100585;-83
2021/07/05 04:35:23;;;;;;;3.22;2.75;;;19.20;99.90;;;19.38;100.00;99775.56;3509072;39;103043;-82
2021/07/05 04:37:53;;;;;;;2.47;2.00;;;19.20;99.90;;;19.41;100.00;99768.00;3516672;39;100691;-83
2021/07/05 04:40:23;;;;;;;4.03;2.78;;;19.20;99.90;;;19.44;100.00;99767.53;3524876;39;100070;-83
2021/07/05 04:42:51;;;;;;;3.13;2.33;;;19.20;99.90;;;19.47;100.00;99764.38;3519882;39;100559;-84
2021/07/05 04:45:21;;;;;;;3.15;2.45;;;19.30;99.90;;;19.49;100.00;99762.31;3516792;39;100994;-82
2021/07/05 04:47:49;;;;;;;2.40;2.00;;;19.30;99.90;;;19.56;100.00;99760.31;3516345;39;100872;-82
2021/07/05 04:50:19;;;;;;;2.85;1.77;;;19.30;99.90;;;19.60;100.00;99756.91;3516101;39;100245;-80
2021/07/05 04:52:46;;;;;;;2.40;1.65;;;19.40;99.90;;;19.58;100.00;99758.19;3503127;39;103109;-82
2021/07/05 04:55:16;;;;;;;2.35;1.92;;;19.40;99.90;;;19.63;100.00;99761.91;3506035;39;102612;-80
2021/07/05 04:57:46;;;;;;;3.25;2.17;;;19.40;99.90;;;19.63;100.00;99761.91;3516774;39;100248;-81
2021/07/05 05:00:17;;;;;;;2.95;1.95;;;19.40;99.90;;;19.55;100.00;99761.38;3505564;39;100324;-83
2021/07/05 05:02:45;;;;;;;2.97;2.50;;;19.50;99.90;;;19.62;100.00;99768.38;3477539;39;100576;-83
2021/07/05 05:05:12;;;;;;;4.22;1.90;;;19.50;99.90;;;19.62;100.00;99765.66;3504784;39;103240;-80
2021/07/05 05:07:43;;;;;;;2.40;1.67;;;20.50;99.90;;;19.63;100.00;99777.34;3498180;39;102137;-82
2021/07/05 05:10:13;;;;;;;2.55;2.05;;;19.50;99.90;;;19.68;100.00;99769.34;3465796;40;99950;-84
2021/07/05 05:12:41;;;;;;;2.28;1.67;;;19.50;99.90;;;19.64;100.00;99773.59;3499548;39;102849;-84
2021/07/05 05:15:12;;;;;;;3.28;2.03;;;19.50;99.90;;;19.72;100.00;99770.53;3465737;40;101290;-82
2021/07/05 05:17:40;;;;;;;2.25;1.75;;;19.60;99.90;;;19.66;100.00;99772.28;3465161;40;101033;-83
2021/07/05 05:20:11;;;;;;;2.17;1.92;;;19.60;99.90;;;19.76;100.00;99768.19;3466675;39;100183;-83
2021/07/05 05:22:39;;;;;;;1.70;1.60;;;19.60;99.90;;;19.81;100.00;99766.44;3463450;40;100664;-82
2021/07/05 05:25:10;;;;;;;4.18;1.98;;;19.60;99.90;;;19.85;100.00;99774.94;3475173;39;101082;-83
2021/07/05 05:27:38;;;;;;;2.78;2.10;;;19.60;99.90;;;19.88;100.00;99772.63;3513362;39;101820;-83
2021/07/05 05:30:09;;;;;;;3.13;2.22;;;19.70;99.90;;;19.87;100.00;99772.84;3466314;40;100266;-81
2021/07/05 05:32:37;;;;;;;3.03;2.22;;;19.70;99.90;;;19.92;100.00;99778.38;3467364;40;100984;-82
2021/07/05 05:35:05;;;;;;;1.85;1.50;;;19.80;99.90;;;19.90;100.00;99778.66;3467500;40;101468;-84
2021/07/05 05:37:33;;;;;;;2.75;2.05;;;19.80;99.90;;;20.01;100.00;99771.59;3465717;40;100758;-82
2021/07/05 05:40:00;;;;;;;3.17;1.95;;;19.90;99.90;;;19.94;100.00;99779.81;3467984;40;100297;-83
2021/07/05 05:42:28;;;;;;;1.95;1.73;;;20.50;99.90;;;20.02;100.00;99781.41;3467116;40;101292;-82
2021/07/05 05:44:55;;;;;;;2.33;2.00;;;20.80;99.90;;;20.03;100.00;99789.28;3456795;40;103264;-84
2021/07/05 05:47:22;;;;;;;5.47;1.75;;;20.00;99.90;;;20.08;100.00;99788.59;3460528;40;100227;-83
2021/07/05 05:49:49;;;;;;;2.38;1.65;;;20.00;99.90;;;20.11;100.00;99788.16;3496941;39;100142;-84
2021/07/05 05:52:16;;;;;;;2.22;1.90;;;20.00;99.90;;;20.15;100.00;99783.91;3464727;40;100794;-83
2021/07/05 05:54:43;;;;;;;2.70;1.98;;;20.10;99.90;;;20.18;100.00;99782.59;3465585;40;102702;-85
2021/07/05 05:57:25;;;;;;;1.80;1.67;;;20.10;99.90;;;20.20;100.00;99788.63;3465310;40;100650;-83
2021/07/05 05:59:55;;;;;;;3.40;1.75;;;20.20;99.90;;;20.27;100.00;99795.63;3509723;39;100259;-84
2021/07/05 06:02:23;;;;;;;3.15;1.65;;;20.80;99.90;;;20.17;100.00;99784.47;3517155;39;100774;-83
2021/07/05 06:04:50;;;;;;;2.95;1.65;;;21.40;99.90;;;20.25;100.00;99788.78;3507806;39;101328;-83
2021/07/05 06:07:17;;;;;;;3.95;1.35;;;20.30;99.90;;;20.39;100.00;99785.66;3510459;39;100397;-83
2021/07/05 06:09:44;;;;;;;2.05;1.85;;;21.40;99.90;;;20.36;100.00;99788.00;3508128;39;100062;-84
2021/07/05 06:12:12;;;;;;;2.42;1.33;;;20.40;99.90;;;20.37;100.00;99789.66;3518150;39;103198;-82
2021/07/05 06:14:39;;;;;;;2.85;1.42;;;20.50;99.90;;;20.35;100.00;99789.88;3520137;39;100367;-83
2021/07/05 06:17:08;;;;;;;2.90;1.50;;;21.20;99.90;;;20.40;100.00;99794.59;3517555;39;100578;-83
2021/07/05 06:19:34;;;;;;;1.33;1.23;;;20.50;99.90;;;20.43;100.00;99792.25;3519671;39;100449;-82
2021/07/05 06:22:02;;;;;;;1.90;1.42;;;21.40;99.90;;;20.34;100.00;99785.47;3518795;39;101414;-81
2021/07/05 06:24:29;;;;;;;2.25;1.17;;;20.60;99.90;;;20.33;100.00;99799.28;3518670;39;101203;-82
2021/07/05 06:26:57;;;;;;;1.23;1.10;;;20.60;99.90;;;20.42;100.00;99795.19;3519115;39;100400;-83
2021/07/05 06:29:24;;;;;;;1.70;1.58;;;21.30;99.90;;;20.47;100.00;99799.94;3518989;39;100186;-83
2021/07/05 06:31:51;;;;;;;1.60;1.50;;;20.60;99.90;;;20.43;100.00;99802.28;3518259;39;102441;-82
2021/07/05 06:34:19;;;;;;;1.92;1.40;;;20.60;99.90;;;20.43;100.00;99794.97;3510104;39;103881;-82
2021/07/05 06:36:46;;;;;;;2.45;1.40;;;20.60;99.90;;;20.32;100.00;99803.91;3520325;39;100554;-82
2021/07/05 06:39:13;;;;;;;2.28;1.63;;;20.40;99.90;;;20.36;100.00;99807.00;3521580;39;100390;-83
2021/07/05 06:41:40;;;;;;;2.38;1.70;;;20.60;99.90;;;20.39;100.00;99812.81;3520064;39;100904;-84
2021/07/05 06:44:07;;;;;;;2.85;1.35;;;20.50;99.90;;;20.56;100.00;99822.97;3520264;39;101284;-84
2021/07/05 06:46:35;;;;;;;1.52;1.40;;;20.60;99.90;;;20.60;100.00;99824.19;3507492;39;101942;-82
2021/07/05 06:49:01;;;;;;;2.35;1.67;;;20.60;99.90;;;20.45;100.00;99816.47;3529997;39;99963;-83
2021/07/05 06:51:30;;;;;;;2.90;1.75;;;20.70;99.90;;;20.46;100.00;99818.13;3506911;39;103473;-83
2021/07/05 06:53:57;;;;;;;1.83;1.40;;;21.50;99.90;;;20.41;100.00;99818.00;3507636;39;103464;-82
2021/07/05 06:56:24;;;;;;;2.10;1.35;;;20.80;99.90;;;20.30;100.00;99830.47;3516318;39;100267;-80
2021/07/05 06:58:51;;;;;;;1.52;1.00;;;20.60;99.90;;;20.16;100.00;99839.03;3506057;39;100195;-81
2021/07/05 07:01:18;;;;;;;1.13;1.00;;;20.60;99.90;;;19.87;100.00;99836.13;3516407;39;101275;-81
2021/07/05 07:03:45;;;;;;;2.08;1.50;;;20.50;99.90;;;19.77;100.00;99832.28;3516186;39;100992;-84
2021/07/05 07:06:12;;;;;;;2.20;1.60;;;20.40;99.90;;;19.81;100.00;99853.31;3517844;39;100496;-81
2021/07/05 07:08:40;;;;;;;1.98;1.75;;;20.50;99.90;;;19.80;100.00;99858.97;3523145;39;100287;-81
2021/07/05 07:11:07;;;;;;;1.35;1.25;;;20.10;99.90;;;19.62;100.00;99866.09;3516694;39;101382;-80
2021/07/05 07:13:34;;;;;;;2.05;1.70;;;20.60;99.90;;;19.45;100.00;99867.69;3516243;39;100694;-82
2021/07/05 07:16:02;;;;;;;1.63;1.50;;;20.00;99.90;;;19.42;100.00;99876.28;3516367;39;100702;-82
2021/07/05 07:18:57;;;;;;;2.47;1.65;;;19.80;99.90;;;19.36;100.00;99877.19;3517542;39;100297;-82
2021/07/05 07:21:25;;;;;;;1.63;1.50;;;19.60;99.90;;;19.24;100.00;99889.84;3506531;39;103102;-82
2021/07/05 07:23:54;;;;;;;1.58;1.30;;;19.50;99.90;;;19.17;100.00;99908.06;3523094;39;101421;-81
2021/07/05 07:26:22;;;;;;;1.67;1.42;;;19.30;99.90;;;19.07;100.00;99908.56;3514382;39;101739;-80
2021/07/05 07:28:52;;;;;;;1.77;1.17;;;18.20;99.90;;;18.99;100.00;99912.41;3517104;39;100076;-82
2021/07/05 07:31:19;;;;;;;4.10;1.73;;;19.10;99.90;;;18.96;100.00;99914.72;3507793;39;102806;-82
2021/07/05 07:33:46;;;;;;;1.15;1.05;;;19.00;99.90;;;18.91;100.00;99920.00;3516121;39;101243;-83
2021/07/05 07:36:13;;;;;;;1.92;1.80;;;19.00;99.90;;;18.83;100.00;99920.25;3516865;39;100489;-83
2021/07/05 07:38:44;;;;;;;3.63;1.73;;;18.90;99.90;;;18.93;100.00;99939.56;3517223;39;100143;-83
2021/07/05 07:41:16;;;;;;;2.05;1.55;;;18.80;99.90;;;18.86;100.00;99939.63;3507265;39;102875;-83
2021/07/05 07:43:43;;;;;;;4.50;1.38;;;18.80;99.90;;;18.83;100.00;99942.75;3506676;39;103602;-83
2021/07/05 07:46:10;;;;;;;1.60;1.50;;;18.70;99.90;;;18.87;100.00;99945.88;3519851;39;100318;-83
2021/07/05 07:48:37;;;;;;;2.42;1.48;;;18.70;99.90;;;18.70;100.00;99944.72;3517358;39;100309;-80
2021/07/05 07:51:04;;;;;;;1.95;1.38;;;18.70;99.90;;;18.80;100.00;99951.31;3509870;39;102470;-83
2021/07/05 07:53:31;;;;;;;2.88;1.85;;;18.60;99.90;;;18.73;100.00;99945.13;3517612;39;100983;-82
2021/07/05 07:55:59;;;;;;;1.38;1.27;;;18.60;99.90;;;18.60;100.00;99937.91;3508255;39;102265;-82
2021/07/05 07:58:28;;;;;;;1.98;1.60;;;18.60;99.90;;;18.60;100.00;99953.34;3518068;39;100450;-82
2021/07/05 08:00:55;;;;;;;2.40;1.38;;;18.50;99.90;;;18.62;100.00;99954.78;3517362;39;101160;-82
2021/07/05 08:03:22;;;;;;;1.48;1.38;;;18.50;99.90;;;18.60;100.00;99951.47;3516605;39;101574;-82
2021/07/05 08:05:49;;;;;;;1.95;1.67;;;19.60;99.90;;;18.51;100.00;99962.75;3520432;39;100462;-84
2021/07/05 08:08:16;;;;;;;1.50;1.35;;;18.40;99.90;;;18.41;100.00;99971.38;3524359;39;100359;-81
2021/07/05 08:10:43;;;;;;;1.63;1.38;;;18.30;99.90;;;18.32;100.00;99972.63;3518408;39;100872;-82
2021/07/05 08:13:11;;;;;;;3.47;1.92;;;19.00;99.90;;;18.34;100.00;99975.13;3517655;39;100909;-83
2021/07/05 08:15:40;;;;;;;2.90;1.90;;;18.20;99.90;;;18.31;100.00;99971.81;3517955;39;100163;-80
2021/07/05 08:18:07;;;;;;;3.15;1.70;;;18.20;99.90;;;18.32;100.00;99975.34;3508409;39;100397;-82
2021/07/05 08:20:34;;;;;;;1.25;1.15;;;18.10;99.90;;;18.26;100.00;99979.78;3518828;39;101314;-82
2021/07/05 08:23:01;;;;;;;2.40;1.50;;;18.10;99.90;;;18.29;100.00;99990.19;3518150;39;101152;-83
2021/07/05 08:25:29;;;;;;;1.40;1.30;;;18.00;99.90;;;18.24;100.00;99986.44;3524498;39;101319;-85
2021/07/05 08:27:58;;;;;;;2.75;1.67;;;18.00;99.90;;;18.17;100.00;99981.06;3526288;39;100129;-83
2021/07/05 08:30:26;;;;;;;1.95;1.40;;;18.00;99.90;;;18.11;100.00;99978.38;3525848;39;101334;-84
2021/07/05 08:32:55;;;;;;;1.85;1.35;;;17.90;99.90;;;18.19;100.00;99972.69;3521652;39;101079;-83
2021/07/05 08:35:24;;;;;;;1.60;1.50;;;17.90;99.90;;;18.25;100.00;99980.81;3519618;39;101092;-82
2021/07/05 08:37:53;;;;;;;1.67;1.25;;;17.90;99.90;;;18.49;100.00;99991.94;3518599;39;99884;-83
2021/07/05 08:40:20;;;;;;;1.15;1.13;;;17.90;99.90;;;18.55;100.00;99994.59;3508925;39;103099;-82
2021/07/05 08:42:49;;;;;;;1.88;1.65;;;18.00;99.90;;;18.63;100.00;99993.56;3517398;39;101900;-81
2021/07/05 08:45:17;;;;;;;1.67;1.30;;;18.00;99.90;;;18.70;100.00;99993.50;3516990;39;100639;-82
2021/07/05 08:47:49;;;;;;;4.90;1.50;;;19.10;99.90;;;18.70;100.00;99988.09;3519666;39;100146;-82
2021/07/05 08:50:20;;;;;;;1.50;1.40;;;18.20;99.90;;;18.91;100.00;99977.75;3533000;39;99909;-81
2021/07/05 08:52:48;;;;;;;1.05;0.95;;;18.30;99.90;;;18.94;100.00;99977.28;3518220;39;101177;-82
2021/07/05 08:55:18;;;;;;;1.38;1.27;;;18.40;99.90;;;18.80;100.00;99964.03;3516985;39;100481;-82
2021/07/05 08:57:46;;;;;;;1.73;1.10;;;18.50;99.90;;;18.81;100.00;99953.00;3521116;39;100218;-83
2021/07/05 09:00:17;;;;;;;1.55;1.25;;;18.60;99.90;;;19.26;100.00;99950.13;3498364;39;103233;-82
2021/07/05 09:02:45;;;;;;;1.70;1.35;;;18.70;99.90;;;19.26;100.00;99947.44;3465065;40;101142;-83
2021/07/05 09:05:13;;;;;;;1.20;1.08;;;18.80;99.90;;;19.42;100.00;99937.84;3465999;40;100676;-83
2021/07/05 09:08:05;;;;;;;0.75;0.75;;;18.90;99.90;;;19.34;100.00;99917.28;3498515;39;100112;-82
2021/07/05 09:10:48;;;;;;;1.67;1.08;;;19.00;99.90;;;19.41;100.00;99904.47;3469198;40;100976;-82
2021/07/05 09:13:21;;;;;;;1.40;1.30;;;19.20;99.90;;;19.67;100.00;99904.22;3467840;40;101178;-81
2021/07/05 09:15:51;;;;;;;1.75;0.80;;;19.30;99.90;;;19.95;100.00;99900.13;3468485;40;100715;-85
2021/07/05 09:18:35;;;;;;;1.23;0.93;;;19.50;99.90;;;19.75;100.00;99883.25;3498132;39;100306;-83
2021/07/05 09:21:18;;;;;;;1.30;0.85;;;19.70;99.90;;;20.21;100.00;99878.03;3466148;40;101573;-83
2021/07/05 09:23:58;;;;;;;0.80;0.70;;;19.90;99.90;;;20.37;100.00;99868.44;3465472;40;100246;-82
2021/07/05 09:26:31;;;;;;;0.55;0.45;;;20.20;99.90;;;20.85;100.00;99860.16;3499031;39;102904;-82
2021/07/05 09:29:00;;;;;;;0.88;0.82;;;20.90;99.90;;;20.78;100.00;99853.97;3466978;40;100068;-83
2021/07/05 09:31:39;;;;;;;1.02;0.73;;;21.80;99.90;;;21.16;100.00;99856.22;3467296;40;100871;-83
2021/07/05 09:34:18;;;;;;;0.70;0.55;;;21.10;99.90;;;21.04;100.00;99847.25;3507577;39;103737;-83
2021/07/05 09:36:46;;;;;;;0.70;0.60;;;21.40;99.90;;;20.85;100.00;99846.56;3487673;39;100402;-82
2021/07/05 09:39:18;;;;;;;0.47;0.40;;;21.50;99.90;;;20.83;100.00;99842.41;3469675;40;100172;-81
2021/07/05 09:41:47;;;;;;;0.68;0.60;;;22.70;99.90;;;20.94;100.00;99847.84;3466778;39;100827;-83
2021/07/05 09:44:20;;;;;;;0.55;0.55;;;21.70;99.90;;;21.14;100.00;99834.69;3465579;40;101246;-83
2021/07/05 09:46:51;;;;;;;0.63;0.52;;;21.80;99.90;;;20.78;100.00;99840.38;3470081;40;101024;-82
2021/07/05 09:49:25;;;;;;;1.20;0.85;;;22.00;99.90;;;20.71;100.00;99839.69;3469359;40;100186;-83
2021/07/05 09:52:19;;;;;;;0.93;0.60;;;22.00;99.90;;;21.00;100.00;99832.50;3468902;40;100706;-83
2021/07/05 09:54:51;;;;;;;0.40;0.40;;;21.90;99.90;;;21.28;100.00;99831.75;3493538;39;103790;-82
2021/07/05 09:57:27;;;;;;;0.60;0.60;;;22.70;99.90;;;21.12;100.00;99833.31;3466550;40;100519;-81
2021/07/05 09:59:58;;;;;;;2.22;0.52;;;22.20;99.90;;;21.47;100.00;99823.22;3509669;39;100343;-83
2021/07/05 10:02:25;;;;;;;0.68;0.68;;;22.50;99.90;;;22.19;100.00;99829.00;3517735;39;100856;-81
2021/07/05 10:05:13;;;;;;;0.57;0.55;;;22.90;99.90;;;22.24;100.00;99813.84;3517478;39;100843;-82
2021/07/05 10:07:40;;;;;;;0.63;0.63;;;22.80;99.90;;;22.57;100.00;99808.41;3516460;39;100496;-82
2021/07/05 10:10:15;;;;;;;1.23;0.70;;;23.50;99.90;;;21.88;100.00;99803.06;3515355;39;100423;-82
2021/07/05 10:12:52;;;;;;;0.65;0.65;;;23.70;99.90;;;21.25;100.00;99810.50;3507017;39;103622;-83